createdAt,value
2022-09-01T00:00:34.935Z,99782.36
2022-09-01T00:03:39.203Z,99778.71
2022-09-01T00:06:41.114Z,99775.02
2022-09-01T00:09:42.944Z,99770.42
2022-09-01T00:12:45.744Z,99765.58
2022-09-01T00:15:47.723Z,99763.45
2022-09-01T00:18:51.777Z,99763.25
2022-09-01T00:21:53.668Z,99765.12
2022-09-01T00:24:55.676Z,99766.70
2022-09-01T00:28:00.452Z,99766.02
2022-09-01T00:31:03.228Z,99766.90
2022-09-01T00:34:05.390Z,99769.04
2022-09-01T00:37:07.708Z,99768.56
2022-09-01T00:40:11.819Z,99769.19
2022-09-01T00:43:24.847Z,99762.34
2022-09-01T00:46:30.225Z,99759.00
2022-09-01T00:49:42.458Z,99759.73
2022-09-01T00:52:53.039Z,99759.99
2022-09-01T00:55:54.847Z,99755.30
2022-09-01T00:58:57.081Z,99757.77
2022-09-01T01:01:59.483Z,99760.33
2022-09-01T01:05:03.264Z,99765.55
2022-09-01T01:08:08.266Z,99764.92
2022-09-01T01:11:18.093Z,99764.94
2022-09-01T01:14:20.225Z,99763.95
2022-09-01T01:17:23.211Z,99765.02
2022-09-01T01:20:47.021Z,99768.80
2022-09-01T01:23:58.216Z,99772.40
2022-09-01T01:27:00.966Z,99774.96
2022-09-01T01:30:04.514Z,99771.14
2022-09-01T01:33:11.544Z,99768.13
2022-09-01T01:36:19.970Z,99767.18
2022-09-01T01:39:27.626Z,99763.94
2022-09-01T01:42:29.623Z,99758.99
2022-09-01T01:45:31.305Z,99757.02
2022-09-01T01:48:34.906Z,99753.09
2022-09-01T01:51:37.166Z,99753.52
2022-09-01T01:54:39.110Z,99755.04
2022-09-01T01:57:49.981Z,99757.80
2022-09-01T02:00:54.461Z,99756.30
2022-09-01T02:03:57.777Z,99756.96
2022-09-01T02:07:02.150Z,99759.91
2022-09-01T02:10:04.137Z,99760.50
2022-09-01T02:13:07.724Z,99758.40
2022-09-01T02:16:12.942Z,99762.27
2022-09-01T02:19:21.133Z,99758.05
2022-09-01T02:22:22.938Z,99759.40
2022-09-01T02:25:24.803Z,99763.15
2022-09-01T02:28:28.598Z,99768.04
2022-09-01T02:31:41.836Z,99766.59
2022-09-01T02:34:43.748Z,99766.23
2022-09-01T02:37:46.477Z,99765.89
2022-09-01T02:40:48.938Z,99769.95
2022-09-01T02:43:51.164Z,99769.91
2022-09-01T02:46:53.393Z,99768.58
2022-09-01T02:49:55.550Z,99763.67
2022-09-01T02:53:00.800Z,99764.34
2022-09-01T02:56:09.688Z,99762.42
2022-09-01T02:59:13.141Z,99760.50
2022-09-01T03:02:14.942Z,99759.74
2022-09-01T03:05:17.566Z,99753.86
2022-09-01T03:08:19.329Z,99751.88
2022-09-01T03:11:23.939Z,99752.44
2022-09-01T03:14:26.232Z,99750.73
2022-09-01T03:17:28.156Z,99750.30
2022-09-01T03:20:34.153Z,99747.31
2022-09-01T03:23:38.105Z,99749.63
2022-09-01T03:26:40.657Z,99746.85
2022-09-01T03:29:42.405Z,99745.71
2022-09-01T03:32:45.301Z,99747.34
2022-09-01T03:35:47.827Z,99753.20
2022-09-01T03:38:51.534Z,99754.55
2022-09-01T03:41:54.170Z,99756.68
2022-09-01T03:44:56.832Z,99755.89
2022-09-01T03:47:58.724Z,99762.73
2022-09-01T03:51:02.940Z,99762.56
2022-09-01T03:54:05.219Z,99763.46
2022-09-01T03:57:06.947Z,99761.75
2022-09-01T04:00:20.407Z,99761.60
2022-09-01T04:03:28.899Z,99765.07
2022-09-01T04:06:31.309Z,99768.27
2022-09-01T04:09:35.382Z,99769.35
2022-09-01T04:12:37.980Z,99769.55
2022-09-01T04:15:39.717Z,99768.84
2022-09-01T04:18:41.742Z,99774.00
2022-09-01T04:21:44.178Z,99775.77
2022-09-01T04:24:46.979Z,99775.64
2022-09-01T04:27:55.648Z,99773.48
2022-09-01T04:30:58.734Z,99776.15
2022-09-01T04:34:02.185Z,99772.89
2022-09-01T04:37:15.447Z,99770.21
2022-09-01T04:40:18.829Z,99770.48
2022-09-01T04:43:20.693Z,99768.96
2022-09-01T04:46:22.998Z,99776.02
2022-09-01T04:49:26.460Z,99779.04
2022-09-01T04:52:28.291Z,99777.88
2022-09-01T04:55:30.564Z,99781.23
2022-09-01T04:58:32.666Z,99781.99
2022-09-01T05:01:45.365Z,99782.15
2022-09-01T05:04:47.498Z,99779.89
2022-09-01T05:07:55.638Z,99778.45
2022-09-01T05:10:57.638Z,99783.84
2022-09-01T05:13:59.276Z,99783.10
2022-09-01T05:17:04.493Z,99779.48
2022-09-01T05:20:07.001Z,99777.42
2022-09-01T05:23:12.764Z,99779.33
2022-09-01T05:26:25.105Z,99774.84
2022-09-01T05:29:27.830Z,99772.55
2022-09-01T05:32:30.567Z,99773.45
2022-09-01T05:35:32.403Z,99777.24
2022-09-01T05:38:35.402Z,99782.73
2022-09-01T05:41:37.436Z,99783.06
2022-09-01T05:44:44.331Z,99784.95
2022-09-01T05:47:46.838Z,99782.41
2022-09-01T05:50:49.797Z,99782.42
2022-09-01T05:53:58.985Z,99784.64
2022-09-01T05:57:17.370Z,99788.48
2022-09-01T06:00:23.067Z,99793.29
2022-09-01T06:03:27.912Z,99789.00
2022-09-01T06:06:54.983Z,99788.52
2022-09-01T06:10:00.897Z,99789.80
2022-09-01T06:13:03.293Z,99792.60
2022-09-01T06:16:05.883Z,99790.54
2022-09-01T06:19:07.595Z,99790.61
2022-09-01T06:22:10.758Z,99787.21
2022-09-01T06:25:12.577Z,99782.41
2022-09-01T06:28:15.074Z,99789.52
2022-09-01T06:31:17.678Z,99792.64
2022-09-01T06:34:20.310Z,99796.35
2022-09-01T06:37:22.987Z,99793.16
2022-09-01T06:40:25.608Z,99797.02
2022-09-01T06:43:30.651Z,99798.38
2022-09-01T06:46:33.242Z,99793.67
2022-09-01T06:49:36.807Z,99792.46
2022-09-01T06:56:03.023Z,99800.70
2022-09-01T06:59:06.181Z,99802.73
2022-09-01T07:02:13.954Z,99801.85
2022-09-01T07:12:08.829Z,99813.34
2022-09-01T07:18:58.439Z,99811.94
2022-09-01T07:22:07.955Z,99812.38
2022-09-01T07:28:37.760Z,99814.66
2022-09-01T07:31:51.746Z,99812.98
2022-09-01T07:35:11.721Z,99810.91
2022-09-01T07:42:55.516Z,99813.27
2022-09-01T07:51:51.886Z,99804.70
2022-09-01T07:54:53.793Z,99797.86
2022-09-01T07:57:55.606Z,99800.94
2022-09-01T08:00:57.525Z,99797.48
2022-09-01T08:04:02.167Z,99793.77
2022-09-01T08:07:05.799Z,99794.00
2022-09-01T08:10:08.703Z,99787.38
2022-09-01T08:13:15.214Z,99790.01
2022-09-01T08:16:18.086Z,99790.19
2022-09-01T08:19:20.391Z,99787.03
2022-09-01T08:22:24.311Z,99789.06
2022-09-01T08:25:26.407Z,99791.17
2022-09-01T08:28:28.748Z,99790.52
2022-09-01T08:31:31.238Z,99784.70
2022-09-01T08:34:34.341Z,99784.92
2022-09-01T08:37:36.527Z,99779.16
2022-09-01T08:40:39.218Z,99777.88
2022-09-01T08:43:57.083Z,99775.78
2022-09-01T08:47:03.036Z,99777.50
2022-09-01T08:50:06.354Z,99774.77
2022-09-01T08:53:54.246Z,99771.05
2022-09-01T08:57:06.220Z,99769.27
2022-09-01T09:00:12.689Z,99771.26
2022-09-01T09:03:23.757Z,99772.05
2022-09-01T09:06:33.740Z,99771.66
2022-09-01T09:09:53.065Z,99768.16
2022-09-01T09:13:03.446Z,99767.21
2022-09-01T09:16:23.829Z,99770.32
2022-09-01T09:19:41.011Z,99762.52
2022-09-01T09:22:43.374Z,99761.45
2022-09-01T09:25:45.078Z,99758.19
2022-09-01T09:28:50.147Z,99760.92
2022-09-01T09:32:06.690Z,99762.23
2022-09-01T09:35:19.217Z,99761.96
2022-09-01T09:38:33.819Z,99755.55
2022-09-01T09:41:38.267Z,99755.63
2022-09-01T09:44:51.250Z,99754.40
2022-09-01T09:47:55.360Z,99761.38
2022-09-01T09:51:16.570Z,99756.20
2022-09-01T09:54:27.793Z,99754.23
2022-09-01T09:57:30.577Z,99757.84
2022-09-01T10:00:34.642Z,99757.77
2022-09-01T10:03:44.657Z,99757.05
2022-09-01T10:06:47.151Z,99757.55
2022-09-01T10:09:49.880Z,99762.21
2022-09-01T10:12:53.746Z,99758.24
2022-09-01T10:16:01.045Z,99758.95
2022-09-01T10:19:07.161Z,99760.52
2022-09-01T10:22:15.178Z,99754.21
2022-09-01T10:25:20.979Z,99747.75
2022-09-01T10:28:24.715Z,99742.79
2022-09-01T10:31:32.389Z,99742.44
2022-09-01T10:34:37.502Z,99746.61
2022-09-01T10:37:41.320Z,99743.54
2022-09-01T10:40:50.720Z,99741.70
2022-09-01T10:43:52.666Z,99739.50
2022-09-01T10:46:59.835Z,99731.83
2022-09-01T10:50:23.414Z,99730.52
2022-09-01T10:53:52.038Z,99737.75
2022-09-01T10:56:54.009Z,99736.58
2022-09-01T10:59:58.435Z,99739.20
2022-09-01T11:07:33.556Z,99738.77
2022-09-01T11:10:32.474Z,99728.46
2022-09-01T11:13:49.919Z,99729.91
2022-09-01T11:17:12.625Z,99728.10
2022-09-01T11:20:34.800Z,99719.42
2022-09-01T11:23:36.743Z,99723.78
2022-09-01T11:26:47.573Z,99724.02
2022-09-01T11:29:56.948Z,99726.95
2022-09-01T11:33:12.218Z,99721.88
2022-09-01T11:36:22.237Z,99722.59
2022-09-01T11:39:31.798Z,99724.05
2022-09-01T11:42:40.392Z,99722.75
2022-09-01T11:45:59.752Z,99718.02
2022-09-01T11:49:09.396Z,99719.49
2022-09-01T11:52:15.640Z,99717.23
2022-09-01T11:55:31.911Z,99716.86
2022-09-01T11:58:39.296Z,99715.85
2022-09-01T12:01:41.610Z,99710.86
2022-09-01T12:04:44.356Z,99708.33
2022-09-01T12:07:47.646Z,99709.25
2022-09-01T12:10:50.043Z,99706.48
2022-09-01T12:14:01.127Z,99702.67
2022-09-01T12:17:06.791Z,99702.73
2022-09-01T12:20:23.372Z,99701.65
2022-09-01T12:23:46.090Z,99702.69
2022-09-01T12:26:49.845Z,99705.60
2022-09-01T12:29:52.003Z,99709.04
2022-09-01T12:33:22.898Z,99703.64
2022-09-01T12:36:36.965Z,99700.11
2022-09-01T12:39:44.798Z,99693.38
2022-09-01T12:42:51.432Z,99696.21
2022-09-01T12:45:53.302Z,99689.56
2022-09-01T12:48:55.684Z,99691.29
2022-09-01T12:52:27.933Z,99686.05
2022-09-01T12:55:50.790Z,99693.19
2022-09-01T12:59:16.046Z,99695.98
2022-09-01T13:02:28.379Z,99697.95
2022-09-01T13:05:41.897Z,99694.43
2022-09-01T13:08:44.059Z,99697.36
2022-09-01T13:12:06.577Z,99699.16
2022-09-01T13:15:10.209Z,99698.39
2022-09-01T13:18:12.215Z,99697.80
2022-09-01T13:21:14.649Z,99698.42
2022-09-01T13:24:16.341Z,99700.20
2022-09-01T13:27:21.837Z,99691.95
2022-09-01T13:30:28.524Z,99689.84
2022-09-01T13:34:08.657Z,99693.05
2022-09-01T13:36:52.961Z,99696.15
2022-09-01T13:39:54.874Z,99698.03
2022-09-01T13:42:56.650Z,99697.88
2022-09-01T13:45:59.057Z,99696.03
2022-09-01T13:49:41.117Z,99697.10
2022-09-01T13:52:25.628Z,99689.88
2022-09-01T13:55:29.837Z,99691.36
2022-09-01T13:58:31.773Z,99688.34
2022-09-01T14:01:33.667Z,99684.88
2022-09-01T14:04:35.429Z,99684.91
2022-09-01T14:07:37.996Z,99687.83
2022-09-01T14:10:43.544Z,99685.94
2022-09-01T14:13:46.394Z,99685.38
2022-09-01T14:16:48.880Z,99687.27
2022-09-01T14:19:51.120Z,99687.27
2022-09-01T14:22:53.086Z,99686.09
2022-09-01T14:25:55.047Z,99682.69
2022-09-01T14:28:56.837Z,99682.71
2022-09-01T14:31:59.452Z,99688.11
2022-09-01T14:35:01.820Z,99682.79
2022-09-01T14:38:06.122Z,99682.24
2022-09-01T14:41:07.973Z,99684.16
2022-09-01T14:44:09.893Z,99687.46
2022-09-01T14:47:12.512Z,99682.86
2022-09-01T14:50:23.222Z,99678.55
2022-09-01T14:53:25.487Z,99674.42
2022-09-01T14:56:27.291Z,99674.65
2022-09-01T14:59:29.012Z,99680.98
2022-09-01T15:02:32.113Z,99675.73
2022-09-01T15:05:39.839Z,99681.88
2022-09-01T15:08:42.634Z,99681.55
2022-09-01T15:11:44.532Z,99685.36
2022-09-01T15:14:47.466Z,99687.30
2022-09-01T15:17:49.848Z,99682.71
2022-09-01T15:20:53.987Z,99688.85
2022-09-01T15:23:56.761Z,99685.82
2022-09-01T15:26:58.553Z,99692.01
2022-09-01T15:30:00.312Z,99687.23
2022-09-01T15:33:02.483Z,99689.95
2022-09-01T15:36:04.394Z,99692.18
2022-09-01T15:39:08.281Z,99691.25
2022-09-01T15:42:10.086Z,99689.66
2022-09-01T15:45:18.134Z,99692.92
2022-09-01T15:48:20.038Z,99691.66
2022-09-01T15:51:29.459Z,99693.63
2022-09-01T15:54:37.678Z,99698.02
2022-09-01T15:57:39.318Z,99699.61
2022-09-01T16:00:42.754Z,99699.81
2022-09-01T16:03:44.509Z,99698.94
2022-09-01T16:06:46.252Z,99702.00
2022-09-01T16:09:48.261Z,99711.81
2022-09-01T16:12:52.054Z,99712.74
2022-09-01T16:16:09.567Z,99712.42
2022-09-01T16:19:33.200Z,99711.55
2022-09-01T16:22:38.070Z,99708.38
2022-09-01T16:25:40.220Z,99714.62
2022-09-01T16:28:45.471Z,99712.98
2022-09-01T16:31:51.527Z,99712.08
2022-09-01T16:34:53.410Z,99713.32
2022-09-01T16:38:23.126Z,99711.27
2022-09-01T16:41:44.571Z,99715.48
2022-09-01T16:45:11.540Z,99715.81
2022-09-01T16:48:41.485Z,99717.47
2022-09-01T16:52:10.131Z,99722.50
2022-09-01T16:55:25.548Z,99723.02
2022-09-01T16:58:33.005Z,99721.23
2022-09-01T17:01:49.363Z,99728.50
2022-09-01T17:05:01.640Z,99730.14
2022-09-01T17:08:10.869Z,99731.98
2022-09-01T17:11:27.736Z,99737.46
2022-09-01T17:14:38.160Z,99741.05
2022-09-01T17:17:51.381Z,99748.77
2022-09-01T17:20:58.170Z,99745.79
2022-09-01T17:24:16.734Z,99751.78
2022-09-01T17:27:24.785Z,99761.17
2022-09-01T17:30:27.164Z,99763.56
2022-09-01T17:34:07.880Z,99765.27
2022-09-01T17:37:29.049Z,99767.08
2022-09-01T17:40:53.118Z,99772.83
2022-09-01T17:44:07.295Z,99774.45
2022-09-01T17:47:35.015Z,99771.69
2022-09-01T17:54:35.236Z,99781.02
2022-09-01T17:57:51.032Z,99781.35
2022-09-01T18:01:30.146Z,99784.06
2022-09-01T18:04:54.018Z,99781.91
2022-09-01T18:08:23.325Z,99783.80
2022-09-01T18:11:37.473Z,99788.47
2022-09-01T18:14:43.161Z,99793.45
2022-09-01T18:17:49.699Z,99796.27
2022-09-01T18:20:57.121Z,99801.05
2022-09-01T18:24:07.410Z,99807.20
2022-09-01T18:27:09.381Z,99810.17
2022-09-01T18:30:11.676Z,99810.39
2022-09-01T18:33:29.102Z,99813.56
2022-09-01T18:36:39.787Z,99817.86
2022-09-01T18:40:16.358Z,99817.63
2022-09-01T18:43:23.114Z,99818.71
2022-09-01T18:46:34.491Z,99818.43
2022-09-01T18:49:52.341Z,99818.41
2022-09-01T18:53:17.483Z,99814.52
2022-09-01T18:56:42.809Z,99821.33
2022-09-01T19:00:04.692Z,99818.59
2022-09-01T19:03:16.652Z,99817.47
2022-09-01T19:06:31.594Z,99824.09
2022-09-01T19:09:39.977Z,99827.27
2022-09-01T19:13:09.887Z,99834.27
2022-09-01T19:16:24.690Z,99837.88
2022-09-01T19:19:37.264Z,99840.86
2022-09-01T19:22:51.270Z,99841.29
2022-09-01T19:25:58.738Z,99844.82
2022-09-01T19:29:05.947Z,99841.82
2022-09-01T19:32:10.106Z,99839.70
2022-09-01T19:35:16.913Z,99839.95
2022-09-01T19:38:27.486Z,99848.34
2022-09-01T19:41:35.480Z,99848.70
2022-09-01T19:44:58.994Z,99850.88
2022-09-01T19:48:14.986Z,99852.81
2022-09-01T19:51:38.623Z,99852.77
2022-09-01T19:54:52.746Z,99850.31
2022-09-01T19:58:07.567Z,99851.65
2022-09-01T20:01:17.093Z,99852.83
2022-09-01T20:04:53.623Z,99853.09
2022-09-01T20:08:25.494Z,99852.12
2022-09-01T20:11:47.849Z,99859.33
2022-09-01T20:15:04.578Z,99863.77
2022-09-01T20:18:10.798Z,99859.14
2022-09-01T20:21:20.876Z,99867.80
2022-09-01T20:24:35.053Z,99868.92
2022-09-01T20:27:37.238Z,99869.97
2022-09-01T20:30:48.204Z,99867.95
2022-09-01T20:34:00.737Z,99865.33
2022-09-01T20:37:08.821Z,99869.65
2022-09-01T20:40:17.109Z,99872.48
2022-09-01T20:43:26.093Z,99875.15
2022-09-01T20:46:28.598Z,99872.46
2022-09-01T20:49:32.216Z,99875.06
2022-09-01T20:52:49.158Z,99878.00
2022-09-01T20:55:56.057Z,99884.81
2022-09-01T20:59:01.412Z,99877.65
2022-09-01T21:02:07.993Z,99874.88
2022-09-01T21:05:12.797Z,99874.63
2022-09-01T21:08:26.479Z,99879.98
2022-09-01T21:11:47.529Z,99882.80
2022-09-01T21:14:59.506Z,99882.18
2022-09-01T21:18:19.621Z,99889.92
2022-09-01T21:21:37.883Z,99892.55
2022-09-01T21:24:42.205Z,99891.67
2022-09-01T21:27:51.482Z,99892.48
2022-09-01T21:30:55.173Z,99892.11
2022-09-01T21:33:57.002Z,99893.85
2022-09-01T21:36:59.002Z,99898.02
2022-09-01T21:40:00.739Z,99900.03
2022-09-01T21:43:08.522Z,99898.65
2022-09-01T21:46:10.944Z,99904.88
2022-09-01T21:49:14.535Z,99906.58
2022-09-01T21:52:16.650Z,99903.70
2022-09-01T21:55:22.726Z,99906.66
2022-09-01T21:58:25.005Z,99905.10
2022-09-01T22:01:33.803Z,99903.09
2022-09-01T22:04:37.182Z,99904.58
2022-09-01T22:07:40.510Z,99905.78
2022-09-01T22:10:46.109Z,99903.52
2022-09-01T22:13:49.610Z,99904.14
2022-09-01T22:16:51.884Z,99905.85
2022-09-01T22:19:53.782Z,99906.40
2022-09-01T22:23:01.964Z,99903.89
2022-09-01T22:26:04.289Z,99903.33
2022-09-01T22:29:07.704Z,99904.52
2022-09-01T22:32:09.767Z,99903.04
2022-09-01T22:35:14.045Z,99907.02
2022-09-01T22:38:17.093Z,99909.36
2022-09-01T22:41:23.275Z,99908.42
2022-09-01T22:44:25.198Z,99908.86
2022-09-01T22:47:26.974Z,99910.29
2022-09-01T22:50:28.711Z,99917.21
2022-09-01T22:53:31.177Z,99910.08
2022-09-01T22:56:35.105Z,99910.77
2022-09-01T22:59:36.891Z,99908.71
2022-09-01T23:02:39.411Z,99902.69
2022-09-01T23:06:11.361Z,99903.06
2022-09-01T23:09:13.962Z,99901.98
2022-09-01T23:12:15.702Z,99903.64
2022-09-01T23:15:17.906Z,99907.90
2022-09-01T23:18:19.706Z,99905.78
2022-09-01T23:21:26.766Z,99905.73
2022-09-01T23:24:28.662Z,99905.04
2022-09-01T23:27:32.394Z,99906.32
2022-09-01T23:30:34.838Z,99910.56
2022-09-01T23:33:37.041Z,99907.64
2022-09-01T23:36:39.289Z,99908.85
2022-09-01T23:39:41.283Z,99913.18
2022-09-01T23:42:43.004Z,99912.77
2022-09-01T23:45:45.710Z,99912.10
2022-09-01T23:48:47.626Z,99911.01
2022-09-01T23:51:49.569Z,99908.11
2022-09-01T23:54:51.506Z,99902.30
2022-09-01T23:57:53.179Z,99898.84
